Flor Da Beira — CUBD4 — position and weather

sailwx.info

Track history (hours):
 
Tides and Currents Weather Stations Pressure Air Temp Water Temp Dewpoint Dewpoint Depression Visibility Wind Speed Wind Dir Waves Ship Positions

Flor Da Beira

Last reported at 2018-Feb-19 21:58 UTC. Time now 2018-Feb-19 23:27 UTC.
Position N 37°57' W 008°52'.

Length 23 m.

Type: Fishing. MMSI: 263408350.

Date/timePositionNaut miles runAvg speedWind from/ knotsBaromVisibWave heightAir tempDewpointWater temp
2018-Feb-19 21:58N 37°57' W 008°52'2 3.6
2018-Feb-19 21:30N 37°57' W 008°54'4 8.8
2018-Feb-19 21:00N 38°02' W 008°55'5 9.0
2018-Feb-19 20:30N 38°06' W 008°56'5 9.0
2018-Feb-19 20:00N 38°11' W 008°56'4 8.9
2018-Feb-19 19:30N 38°15' W 008°57'5 9.0
2018-Feb-19 19:00N 38°19' W 008°59'5 9.1
2018-Feb-19 18:30N 38°24' W 009°00'3 6.9
2018-Feb-19 18:00N 38°26' W 009°04'0 0.4
2018-Feb-19 17:31N 38°26' W 009°04'2 3.4
2018-Feb-19 17:00N 38°26' W 009°06'0 0.1
2018-Feb-19 13:15N 38°26' W 009°07'0 0.1
2018-Feb-19 12:42N 38°26' W 009°07'7 5.5
2018-Feb-19 11:28N 38°26' W 009°15'5 9.8
2018-Feb-19 10:56N 38°30' W 009°19'4 9.9
2018-Feb-19 10:29N 38°34' W 009°22'5 9.8
2018-Feb-19 10:00N 38°37' W 009°26'3 5.8
2018-Feb-19 09:30N 38°40' W 009°28'0 0.1
2018-Feb-19 09:00N 38°40' W 009°28'0 0.2
2018-Feb-19 08:30N 38°40' W 009°28'0 0.1
2018-Feb-19 08:00N 38°40' W 009°28'2 3.2
2018-Feb-19 07:30N 38°40' W 009°26'2 3.2
2018-Feb-19 07:00N 38°38' W 009°24'1 1.2
2018-Feb-19 06:30N 38°39' W 009°24'1 2.9
2018-Feb-19 06:01N 38°38' W 009°23'0 1.0
2018-Feb-19 05:30N 38°38' W 009°23'3 6.0
2018-Feb-19 05:00N 38°41' W 009°26'2 3.2
2018-Feb-19 04:30N 38°39' W 009°25'0 0.2
2018-Feb-19 04:01N 38°39' W 009°25'0 0.2
2018-Feb-19 03:30N 38°39' W 009°25'0 0.2
2018-Feb-19 03:00N 38°40' W 009°25'2 3.1
2018-Feb-19 02:30N 38°38' W 009°23'0 0.3
2018-Feb-19 02:00N 38°39' W 009°23'0 0.4
2018-Feb-19 01:30N 38°39' W 009°23'0 0.4
2018-Feb-19 01:00N 38°38' W 009°23'0 0.2
2018-Feb-19 00:30N 38°39' W 009°23'0 0.9
2018-Feb-19 00:00N 38°39' W 009°23'3 5.2
2018-Feb-18 23:31N 38°37' W 009°20'3 6.9
2018-Feb-18 23:01N 38°35' W 009°18'3 5.0
2018-Feb-18 22:30N 38°32' W 009°16'4 8.0
2018-Feb-18 22:00N 38°29' W 009°15'4 7.9
2018-Feb-18 21:30N 38°25' W 009°14'3 6.8
2018-Feb-18 21:01N 38°22' W 009°11'4 7.1
2018-Feb-18 20:30N 38°20' W 009°08'4 7.1
2018-Feb-18 20:00N 38°17' W 009°05'4 8.2
2018-Feb-18 19:31N 38°13' W 009°02'5 9.1
2018-Feb-18 19:00N 38°09' W 008°59'5 9.2
2018-Feb-18 18:31N 38°05' W 008°57'5 9.0
2018-Feb-18 18:00N 38°01' W 008°55'5 9.1
2018-Feb-18 17:31N 37°57' W 008°54'1 2.8
2018-Feb-18 17:01N 37°57' W 008°52'  
2018-Feb-15 14:00N 37°57' W 008°52'0 0.1
2018-Feb-15 13:31N 37°57' W 008°52'0 0.0
2018-Feb-15 13:01N 37°57' W 008°52'1 2.8
2018-Feb-15 12:30N 37°57' W 008°54'0 0.4
2018-Feb-15 12:00N 37°57' W 008°54'0 0.2
2018-Feb-15 11:31N 37°57' W 008°54'0 0.3
2018-Feb-15 11:00N 37°57' W 008°54'2 4.1
2018-Feb-15 10:31N 37°59' W 008°54'1 1.5
2018-Feb-15 10:00N 37°59' W 008°55'1 1.5
2018-Feb-15 09:30N 37°58' W 008°55'0 0.1
2018-Feb-15 09:00N 37°58' W 008°55'0 0.2
2018-Feb-15 08:31N 37°58' W 008°55'1 2.8
2018-Feb-15 08:00N 37°59' W 008°54'1 3.0
2018-Feb-15 07:31N 37°58' W 008°55'2 3.8
2018-Feb-15 07:01N 37°57' W 008°52'0 0.0
2018-Feb-15 06:31N 37°57' W 008°52'0 0.0
2018-Feb-14 19:35N 37°57' W 008°52'0 0.0
2018-Feb-14 19:30N 37°57' W 008°52'0 0.0
2018-Feb-14 19:00N 37°57' W 008°52'0 0.0
2018-Feb-14 18:30N 37°57' W 008°52'0 0.0
2018-Feb-14 13:36N 37°57' W 008°52'0 0.1
2018-Feb-14 13:30N 37°57' W 008°52'0 0.0
2018-Feb-14 13:00N 37°57' W 008°52'0 0.0
2018-Feb-14 12:30N 37°57' W 008°52'0 0.0
2018-Feb-14 12:00N 37°57' W 008°52'0 0.0
2018-Feb-14 11:30N 37°57' W 008°52'1 2.8
2018-Feb-14 11:00N 37°56' W 008°53'2 4.0
2018-Feb-14 10:30N 37°58' W 008°55'0 0.3
2018-Feb-14 10:00N 37°58' W 008°55'0 0.5
2018-Feb-14 09:30N 37°58' W 008°55'2 3.3
2018-Feb-14 09:00N 37°59' W 008°54'0 0.4
2018-Feb-14 08:30N 37°60' W 008°54'0 0.1
2018-Feb-14 08:00N 37°60' W 008°54'1 1.4
2018-Feb-14 07:30N 37°59' W 008°54'3 5.8
2018-Feb-14 07:00N 37°56' W 008°53'1 1.5
2018-Feb-14 06:30N 37°57' W 008°52'0 0.0
2018-Feb-14 06:00N 37°57' W 008°52'0 0.0
2018-Feb-14 05:30N 37°57' W 008°52'0 0.0
2018-Feb-14 05:00N 37°57' W 008°52'0 0.0
2018-Feb-14 04:30N 37°57' W 008°52'0 0.0
2018-Feb-12 17:24N 37°57' W 008°52'0 0.0
2018-Feb-12 17:00N 37°57' W 008°52'0 0.0
2018-Feb-12 16:31N 37°57' W 008°52'0 0.0
2018-Feb-12 16:00N 37°57' W 008°52'0 0.0
2018-Feb-12 15:31N 37°57' W 008°52'0 0.0
2018-Feb-12 15:01N 37°57' W 008°52'0 0.0
2018-Feb-12 14:31N 37°57' W 008°52'0 0.0
2018-Feb-12 14:01N 37°57' W 008°52'0 0.0
2018-Feb-12 13:31N 37°57' W 008°52'0 0.0
2018-Feb-12 13:01N 37°57' W 008°52'0 0.0
2018-Feb-12 12:30N 37°57' W 008°52'0 0.0
2018-Feb-12 12:01N 37°57' W 008°52'0 0.0
2018-Feb-12 11:30N 37°57' W 008°52'0 0.0
2018-Feb-12 11:00N 37°57' W 008°52'0 0.0
2018-Feb-12 10:30N 37°57' W 008°52'0 0.0
2018-Feb-12 10:01N 37°57' W 008°52'0 0.0
2018-Feb-12 09:31N 37°57' W 008°52'0 0.0
2018-Feb-12 09:00N 37°57' W 008°52'0 0.0
2018-Feb-12 08:30N 37°57' W 008°52'0 0.0
2018-Feb-12 08:01N 37°57' W 008°52'0 0.0
2018-Feb-12 07:30N 37°57' W 008°52'0 0.0
2018-Feb-12 07:00N 37°57' W 008°52'  
Track history (hours):
 
Tides and Currents Weather Stations Pressure Air Temp Water Temp Dewpoint Dewpoint Depression Visibility Wind Speed Wind Dir Waves Ship Positions

Flor Da Beira

Last reported at 2018-Feb-19 21:58 UTC. Time now 2018-Feb-19 23:27 UTC.
Position N 37°57' W 008°52'.

Length 23 m.

Type: Fishing. MMSI: 263408350.

Date/timePositionNaut miles runAvg speedWind from/ knotsBaromVisibWave heightAir tempDewpointWater temp
2018-Feb-19 21:58N 37°57' W 008°52'2 3.6
2018-Feb-19 21:30N 37°57' W 008°54'4 8.8
2018-Feb-19 21:00N 38°02' W 008°55'5 9.0
2018-Feb-19 20:30N 38°06' W 008°56'5 9.0
2018-Feb-19 20:00N 38°11' W 008°56'4 8.9
2018-Feb-19 19:30N 38°15' W 008°57'5 9.0
2018-Feb-19 19:00N 38°19' W 008°59'5 9.1
2018-Feb-19 18:30N 38°24' W 009°00'3 6.9
2018-Feb-19 18:00N 38°26' W 009°04'0 0.4
2018-Feb-19 17:31N 38°26' W 009°04'2 3.4
2018-Feb-19 17:00N 38°26' W 009°06'0 0.1
2018-Feb-19 13:15N 38°26' W 009°07'0 0.1
2018-Feb-19 12:42N 38°26' W 009°07'7 5.5
2018-Feb-19 11:28N 38°26' W 009°15'5 9.8
2018-Feb-19 10:56N 38°30' W 009°19'4 9.9
2018-Feb-19 10:29N 38°34' W 009°22'5 9.8
2018-Feb-19 10:00N 38°37' W 009°26'3 5.8
2018-Feb-19 09:30N 38°40' W 009°28'0 0.1
2018-Feb-19 09:00N 38°40' W 009°28'0 0.2
2018-Feb-19 08:30N 38°40' W 009°28'0 0.1
2018-Feb-19 08:00N 38°40' W 009°28'2 3.2
2018-Feb-19 07:30N 38°40' W 009°26'2 3.2
2018-Feb-19 07:00N 38°38' W 009°24'1 1.2
2018-Feb-19 06:30N 38°39' W 009°24'1 2.9
2018-Feb-19 06:01N 38°38' W 009°23'0 1.0
2018-Feb-19 05:30N 38°38' W 009°23'3 6.0
2018-Feb-19 05:00N 38°41' W 009°26'2 3.2
2018-Feb-19 04:30N 38°39' W 009°25'0 0.2
2018-Feb-19 04:01N 38°39' W 009°25'0 0.2
2018-Feb-19 03:30N 38°39' W 009°25'0 0.2
2018-Feb-19 03:00N 38°40' W 009°25'2 3.1
2018-Feb-19 02:30N 38°38' W 009°23'0 0.3
2018-Feb-19 02:00N 38°39' W 009°23'0 0.4
2018-Feb-19 01:30N 38°39' W 009°23'0 0.4
2018-Feb-19 01:00N 38°38' W 009°23'0 0.2
2018-Feb-19 00:30N 38°39' W 009°23'0 0.9
2018-Feb-19 00:00N 38°39' W 009°23'3 5.2
2018-Feb-18 23:31N 38°37' W 009°20'3 6.9
2018-Feb-18 23:01N 38°35' W 009°18'3 5.0
2018-Feb-18 22:30N 38°32' W 009°16'4 8.0
2018-Feb-18 22:00N 38°29' W 009°15'4 7.9
2018-Feb-18 21:30N 38°25' W 009°14'3 6.8
2018-Feb-18 21:01N 38°22' W 009°11'4 7.1
2018-Feb-18 20:30N 38°20' W 009°08'4 7.1
2018-Feb-18 20:00N 38°17' W 009°05'4 8.2
2018-Feb-18 19:31N 38°13' W 009°02'5 9.1
2018-Feb-18 19:00N 38°09' W 008°59'5 9.2
2018-Feb-18 18:31N 38°05' W 008°57'5 9.0
2018-Feb-18 18:00N 38°01' W 008°55'5 9.1
2018-Feb-18 17:31N 37°57' W 008°54'1 2.8
2018-Feb-18 17:01N 37°57' W 008°52'  
2018-Feb-15 14:00N 37°57' W 008°52'0 0.1
2018-Feb-15 13:31N 37°57' W 008°52'0 0.0
2018-Feb-15 13:01N 37°57' W 008°52'1 2.8
2018-Feb-15 12:30N 37°57' W 008°54'0 0.4
2018-Feb-15 12:00N 37°57' W 008°54'0 0.2
2018-Feb-15 11:31N 37°57' W 008°54'0 0.3
2018-Feb-15 11:00N 37°57' W 008°54'2 4.1
2018-Feb-15 10:31N 37°59' W 008°54'1 1.5
2018-Feb-15 10:00N 37°59' W 008°55'1 1.5
2018-Feb-15 09:30N 37°58' W 008°55'0 0.1
2018-Feb-15 09:00N 37°58' W 008°55'0 0.2
2018-Feb-15 08:31N 37°58' W 008°55'1 2.8
2018-Feb-15 08:00N 37°59' W 008°54'1 3.0
2018-Feb-15 07:31N 37°58' W 008°55'2 3.8
2018-Feb-15 07:01N 37°57' W 008°52'0 0.0
2018-Feb-15 06:31N 37°57' W 008°52'0 0.0
2018-Feb-14 19:35N 37°57' W 008°52'0 0.0
2018-Feb-14 19:30N 37°57' W 008°52'0 0.0
2018-Feb-14 19:00N 37°57' W 008°52'0 0.0
2018-Feb-14 18:30N 37°57' W 008°52'0 0.0
2018-Feb-14 13:36N 37°57' W 008°52'0 0.1
2018-Feb-14 13:30N 37°57' W 008°52'0 0.0
2018-Feb-14 13:00N 37°57' W 008°52'0 0.0
2018-Feb-14 12:30N 37°57' W 008°52'0 0.0
2018-Feb-14 12:00N 37°57' W 008°52'0 0.0
2018-Feb-14 11:30N 37°57' W 008°52'1 2.8
2018-Feb-14 11:00N 37°56' W 008°53'2 4.0
2018-Feb-14 10:30N 37°58' W 008°55'0 0.3
2018-Feb-14 10:00N 37°58' W 008°55'0 0.5
2018-Feb-14 09:30N 37°58' W 008°55'2 3.3
2018-Feb-14 09:00N 37°59' W 008°54'0 0.4
2018-Feb-14 08:30N 37°60' W 008°54'0 0.1
2018-Feb-14 08:00N 37°60' W 008°54'1 1.4
2018-Feb-14 07:30N 37°59' W 008°54'3 5.8
2018-Feb-14 07:00N 37°56' W 008°53'1 1.5
2018-Feb-14 06:30N 37°57' W 008°52'0 0.0
2018-Feb-14 06:00N 37°57' W 008°52'0 0.0
2018-Feb-14 05:30N 37°57' W 008°52'0 0.0
2018-Feb-14 05:00N 37°57' W 008°52'0 0.0
2018-Feb-14 04:30N 37°57' W 008°52'0 0.0
2018-Feb-12 17:24N 37°57' W 008°52'0 0.0
2018-Feb-12 17:00N 37°57' W 008°52'0 0.0
2018-Feb-12 16:31N 37°57' W 008°52'0 0.0
2018-Feb-12 16:00N 37°57' W 008°52'0 0.0
2018-Feb-12 15:31N 37°57' W 008°52'0 0.0
2018-Feb-12 15:01N 37°57' W 008°52'0 0.0
2018-Feb-12 14:31N 37°57' W 008°52'0 0.0
2018-Feb-12 14:01N 37°57' W 008°52'0 0.0
2018-Feb-12 13:31N 37°57' W 008°52'0 0.0
2018-Feb-12 13:01N 37°57' W 008°52'0 0.0
2018-Feb-12 12:30N 37°57' W 008°52'0 0.0
2018-Feb-12 12:01N 37°57' W 008°52'0 0.0
2018-Feb-12 11:30N 37°57' W 008°52'0 0.0
2018-Feb-12 11:00N 37°57' W 008°52'0 0.0
2018-Feb-12 10:30N 37°57' W 008°52'0 0.0
2018-Feb-12 10:01N 37°57' W 008°52'0 0.0
2018-Feb-12 09:31N 37°57' W 008°52'0 0.0
2018-Feb-12 09:00N 37°57' W 008°52'0 0.0
2018-Feb-12 08:30N 37°57' W 008°52'0 0.0
2018-Feb-12 08:01N 37°57' W 008°52'0 0.0
2018-Feb-12 07:30N 37°57' W 008°52'0 0.0
2018-Feb-12 07:00N 37°57' W 008°52'  

Dump ship's entire track history